createdAt,value
2019-02-02T00:00:42.323Z,14.00
2019-02-02T00:03:14.666Z,14.68
2019-02-02T00:05:46.807Z,14.18
2019-02-02T00:13:20.817Z,14.70
2019-02-02T00:15:53.276Z,15.88
2019-02-02T00:18:25.831Z,14.45
2019-02-02T00:20:57.815Z,14.43
2019-02-02T00:23:29.842Z,13.80
2019-02-02T00:26:02.323Z,14.33
2019-02-02T00:28:34.338Z,15.23
2019-02-02T00:31:06.531Z,14.43
2019-02-02T00:33:38.777Z,13.58
2019-02-02T00:38:41.846Z,14.78
2019-02-02T00:41:14.789Z,13.48
2019-02-02T00:48:48.883Z,13.28
2019-02-02T00:51:20.760Z,13.68
2019-02-02T00:53:52.822Z,14.55
2019-02-02T00:56:24.852Z,15.43
2019-02-02T01:01:29.708Z,15.32
2019-02-02T01:06:32.820Z,14.70
2019-02-02T01:09:09.362Z,14.78
2019-02-02T01:11:41.327Z,15.28
2019-02-02T01:14:13.443Z,14.35
2019-02-02T01:16:45.665Z,14.90
2019-02-02T01:19:17.774Z,15.35
2019-02-02T01:21:49.807Z,13.72
2019-02-02T01:24:21.842Z,16.02
2019-02-02T01:26:53.848Z,13.95
2019-02-02T01:29:25.814Z,14.50
2019-02-02T01:31:57.794Z,13.25
2019-02-02T01:34:29.792Z,14.50
2019-02-02T01:37:01.775Z,13.90
2019-02-02T01:39:34.376Z,16.17
2019-02-02T01:42:06.811Z,14.68
2019-02-02T01:44:38.850Z,14.38
2019-02-02T01:47:10.811Z,15.10
2019-02-02T01:49:43.816Z,15.80
2019-02-02T01:52:16.312Z,16.82
2019-02-02T01:54:48.792Z,15.68
2019-02-02T01:57:20.850Z,15.48
2019-02-02T01:59:52.864Z,15.40
2019-02-02T02:02:24.796Z,15.38
2019-02-02T02:04:56.826Z,15.30
2019-02-02T02:07:28.824Z,15.53
2019-02-02T02:10:00.835Z,15.13
2019-02-02T02:12:33.047Z,15.68
2019-02-02T02:15:04.992Z,14.13
2019-02-02T02:17:36.780Z,13.43
2019-02-02T02:20:09.827Z,13.93
2019-02-02T02:22:41.817Z,15.00
2019-02-02T02:25:17.812Z,14.25
2019-02-02T02:27:50.315Z,13.53
2019-02-02T02:30:24.732Z,13.75
2019-02-02T02:35:27.798Z,14.38
2019-02-02T02:37:59.832Z,13.60
2019-02-02T02:40:31.779Z,13.28
2019-02-02T02:43:03.793Z,13.00
2019-02-02T02:45:35.835Z,13.60
2019-02-02T02:48:07.854Z,14.13
2019-02-02T02:50:39.832Z,13.60
2019-02-02T02:53:12.324Z,15.30
2019-02-02T02:55:44.818Z,14.70
2019-02-02T02:58:16.818Z,14.63
2019-02-02T03:00:48.810Z,15.08
2019-02-02T03:03:20.804Z,13.40
2019-02-02T03:05:52.822Z,12.50
2019-02-02T03:08:24.828Z,14.20
2019-02-02T03:10:56.842Z,14.43
2019-02-02T03:13:28.842Z,14.90
2019-02-02T03:16:01.112Z,14.98
2019-02-02T03:18:33.324Z,13.62
2019-02-02T03:21:05.407Z,14.30
2019-02-02T03:23:37.786Z,13.60
2019-02-02T03:28:52.793Z,12.68
2019-02-02T03:31:14.844Z,13.10
2019-02-02T03:33:46.818Z,13.88
2019-02-02T03:36:18.849Z,13.40
2019-02-02T03:38:51.800Z,13.10
2019-02-02T03:46:25.848Z,14.55
2019-02-02T03:48:57.799Z,16.17
2019-02-02T03:54:08.370Z,14.93
2019-02-02T03:56:34.827Z,15.00
2019-02-02T03:59:07.242Z,13.70
2019-02-02T04:01:39.416Z,14.65
2019-02-02T04:04:11.802Z,14.53
2019-02-02T04:06:43.822Z,13.57
2019-02-02T04:09:15.784Z,13.58
2019-02-02T04:11:47.817Z,14.90
2019-02-02T04:14:19.826Z,14.18
2019-02-02T04:16:51.813Z,15.48
2019-02-02T04:19:24.319Z,14.20
2019-02-02T04:21:56.368Z,14.43
2019-02-02T04:24:28.999Z,15.38
2019-02-02T04:27:01.454Z,12.30
2019-02-02T04:29:33.491Z,13.85
2019-02-02T04:32:05.848Z,14.33
2019-02-02T04:34:37.854Z,15.13
2019-02-02T04:37:09.804Z,14.90
2019-02-02T04:39:41.811Z,14.05
2019-02-02T04:42:13.821Z,15.65
2019-02-02T04:44:46.315Z,14.75
2019-02-02T04:47:18.867Z,14.30
2019-02-02T04:49:50.819Z,13.60
2019-02-02T04:57:26.365Z,15.48
2019-02-02T04:59:58.808Z,13.58
2019-02-02T05:02:30.830Z,15.00
2019-02-02T05:05:02.859Z,15.00
2019-02-02T05:07:35.331Z,17.07
2019-02-02T05:10:08.309Z,14.70
2019-02-02T05:12:43.775Z,13.72
2019-02-02T05:17:46.856Z,14.00
2019-02-02T05:20:18.854Z,14.53
2019-02-02T05:22:51.325Z,14.63
2019-02-02T05:25:23.539Z,16.97
2019-02-02T05:27:55.837Z,18.00
2019-02-02T05:30:31.649Z,16.60
2019-02-02T05:33:04.318Z,18.35
2019-02-02T05:35:36.776Z,15.80
2019-02-02T05:40:39.803Z,16.20
2019-02-02T05:43:11.771Z,16.70
2019-02-02T05:45:43.810Z,16.90
2019-02-02T05:48:15.911Z,15.67
2019-02-02T05:50:47.954Z,15.43
2019-02-02T05:53:19.808Z,17.35
2019-02-02T05:55:51.796Z,16.50
2019-02-02T06:03:27.790Z,24.65
2019-02-02T06:08:31.276Z,23.77
2019-02-02T06:11:03.298Z,24.57
2019-02-02T06:13:35.350Z,25.12
2019-02-02T06:16:07.769Z,25.12
2019-02-02T06:21:10.839Z,26.23
2019-02-02T06:23:43.309Z,25.37
2019-02-02T06:26:15.795Z,25.37
2019-02-02T06:28:47.902Z,26.02
2019-02-02T06:31:20.311Z,26.60
2019-02-02T06:33:52.310Z,28.27
2019-02-02T06:36:24.323Z,27.67
2019-02-02T06:38:56.661Z,27.10
2019-02-02T06:41:28.951Z,27.75
2019-02-02T06:44:01.313Z,27.85
2019-02-02T06:46:43.217Z,27.02
2019-02-02T06:49:07.593Z,29.32
2019-02-02T06:51:39.807Z,29.48
2019-02-02T06:54:11.813Z,28.62
2019-02-02T06:56:43.842Z,28.98
2019-02-02T06:59:15.846Z,27.55
2019-02-02T07:01:47.855Z,28.25
2019-02-02T07:04:20.015Z,29.77
2019-02-02T07:06:52.310Z,30.02
2019-02-02T07:09:24.834Z,29.65
2019-02-02T07:11:56.836Z,27.52
2019-02-02T07:14:28.838Z,26.35
2019-02-02T07:17:00.801Z,26.57
2019-02-02T07:19:32.790Z,26.48
2019-02-02T07:22:04.778Z,27.13
2019-02-02T07:29:38.952Z,21.60
2019-02-02T07:32:10.818Z,22.95
2019-02-02T07:34:42.808Z,21.73
2019-02-02T07:37:16.899Z,18.70
2019-02-02T07:39:49.304Z,20.25
2019-02-02T07:42:21.797Z,17.50
2019-02-02T07:49:55.837Z,21.20
2019-02-02T07:52:27.789Z,20.10
2019-02-02T08:02:32.772Z,17.15
2019-02-02T08:05:04.840Z,18.17
2019-02-02T08:07:36.798Z,21.62
2019-02-02T08:10:11.384Z,19.53
2019-02-02T08:12:43.819Z,20.77
2019-02-02T08:15:21.125Z,19.57
2019-02-02T08:17:53.302Z,16.93
2019-02-02T08:20:25.316Z,16.62
2019-02-02T08:22:57.808Z,18.60
2019-02-02T08:30:35.828Z,20.82
2019-02-02T08:33:08.866Z,20.30
2019-02-02T08:35:41.332Z,18.73
2019-02-02T08:38:13.788Z,19.07
2019-02-02T08:45:47.829Z,27.67
2019-02-02T08:48:20.313Z,30.52
2019-02-02T08:50:52.783Z,29.72
2019-02-02T08:53:24.795Z,26.40
2019-02-02T08:55:56.843Z,27.50
2019-02-02T08:58:28.786Z,25.95
2019-02-02T09:03:33.878Z,24.65
2019-02-02T09:06:05.803Z,23.15
2019-02-02T09:08:37.812Z,22.58
2019-02-02T09:11:10.309Z,24.18
2019-02-02T09:13:42.276Z,22.32
2019-02-02T09:16:14.318Z,21.23
2019-02-02T09:18:46.415Z,17.15
2019-02-02T09:21:18.490Z,19.05
2019-02-02T09:23:50.711Z,18.45
2019-02-02T09:31:24.452Z,18.77
2019-02-02T09:33:56.874Z,19.05
2019-02-02T09:36:28.826Z,21.12
2019-02-02T09:39:00.808Z,17.65
2019-02-02T09:41:32.841Z,19.75
2019-02-02T09:44:04.826Z,18.42
2019-02-02T09:46:36.983Z,18.25
2019-02-02T09:49:08.778Z,17.95
2019-02-02T09:51:41.287Z,18.25
2019-02-02T09:54:13.635Z,19.92
2019-02-02T09:56:45.822Z,18.32
2019-02-02T09:59:17.827Z,16.93
2019-02-02T10:01:49.786Z,20.88
2019-02-02T10:06:52.795Z,16.00
2019-02-02T10:09:24.857Z,19.42
2019-02-02T10:11:57.003Z,17.80
2019-02-02T10:14:29.373Z,19.80
2019-02-02T10:18:58.071Z,18.30
2019-02-02T10:21:30.483Z,20.15
2019-02-02T10:24:03.220Z,18.95
2019-02-02T10:26:35.856Z,19.57
2019-02-02T10:29:08.079Z,18.95
2019-02-02T10:31:43.806Z,20.65
2019-02-02T10:34:15.841Z,19.15
2019-02-02T10:36:47.907Z,19.92
2019-02-02T10:39:19.838Z,18.70
2019-02-02T10:41:52.320Z,18.35
2019-02-02T10:44:24.643Z,17.77
2019-02-02T10:49:28.355Z,21.10
2019-02-02T10:52:00.852Z,18.50
2019-02-02T10:54:33.677Z,20.20
2019-02-02T10:57:05.883Z,21.37
2019-02-02T10:59:38.035Z,19.75
2019-02-02T11:02:10.309Z,21.52
2019-02-02T11:04:42.842Z,21.85
2019-02-02T11:07:15.125Z,21.87
2019-02-02T11:09:47.863Z,18.55
2019-02-02T11:12:20.136Z,17.73
2019-02-02T11:14:52.997Z,19.42
2019-02-02T11:17:25.829Z,19.90
2019-02-02T11:19:58.498Z,17.25
2019-02-02T11:22:30.494Z,19.23
2019-02-02T11:25:02.300Z,18.10
2019-02-02T11:27:35.067Z,17.40
2019-02-02T11:30:09.856Z,16.23
2019-02-02T11:32:41.897Z,17.75
2019-02-02T11:35:15.907Z,16.77
2019-02-02T11:37:47.765Z,18.25
2019-02-02T11:42:57.054Z,19.07
2019-02-02T11:45:28.741Z,20.55
2019-02-02T11:48:01.306Z,19.30
2019-02-02T11:50:33.068Z,17.98
2019-02-02T11:53:05.303Z,22.07
2019-02-02T11:55:36.902Z,18.27
2019-02-02T11:58:23.343Z,21.12
2019-02-02T12:00:55.454Z,18.12
2019-02-02T12:03:27.303Z,20.17
2019-02-02T12:05:58.910Z,18.00
2019-02-02T12:08:30.776Z,17.40
2019-02-02T12:13:35.934Z,17.60
2019-02-02T12:16:07.749Z,18.70
2019-02-02T12:21:11.839Z,19.60
2019-02-02T12:23:43.790Z,20.08
2019-02-02T12:26:16.042Z,20.40
2019-02-02T12:28:47.799Z,17.98
2019-02-02T12:31:19.728Z,17.57
2019-02-02T12:36:25.862Z,17.17
2019-02-02T12:38:57.870Z,17.92
2019-02-02T12:41:29.749Z,18.98
2019-02-02T12:46:33.287Z,18.65
2019-02-02T12:49:05.302Z,18.35
2019-02-02T12:51:37.454Z,18.65
2019-02-02T12:54:09.309Z,19.30
2019-02-02T12:56:40.859Z,18.50
2019-02-02T12:59:12.755Z,16.55
2019-02-02T13:04:15.296Z,22.95
2019-02-02T13:06:47.306Z,22.32
2019-02-02T13:09:18.859Z,20.95
2019-02-02T13:11:50.376Z,21.70
2019-02-02T13:14:22.306Z,21.12
2019-02-02T13:16:53.859Z,23.40
2019-02-02T13:19:25.725Z,22.17
2019-02-02T13:24:28.434Z,24.72
2019-02-02T13:27:00.630Z,21.87
2019-02-02T13:29:32.406Z,22.37
2019-02-02T13:32:04.066Z,17.60
2019-02-02T13:34:35.757Z,20.30
2019-02-02T13:39:40.422Z,28.42
2019-02-02T13:42:16.137Z,25.72
2019-02-02T13:44:48.343Z,24.40
2019-02-02T13:47:20.393Z,29.18
2019-02-02T13:49:52.311Z,27.00
2019-02-02T13:52:24.325Z,30.43
2019-02-02T13:54:56.268Z,30.25
2019-02-02T13:57:27.849Z,33.67
2019-02-02T13:59:59.771Z,33.65
2019-02-02T14:05:04.208Z,33.55
2019-02-02T14:07:35.812Z,31.33
2019-02-02T14:10:09.794Z,33.15
2019-02-02T14:12:41.376Z,31.50
2019-02-02T14:15:13.812Z,30.68
2019-02-02T14:17:45.880Z,31.05
2019-02-02T14:20:17.793Z,27.80
2019-02-02T14:25:20.307Z,26.45
2019-02-02T14:27:51.858Z,24.82
2019-02-02T14:30:26.306Z,22.77
2019-02-02T14:32:58.751Z,22.37
2019-02-02T14:38:01.759Z,22.05
2019-02-02T14:43:04.386Z,22.45
2019-02-02T14:45:36.067Z,18.92
2019-02-02T14:48:07.745Z,17.75
2019-02-02T14:53:10.301Z,14.93
2019-02-02T14:55:41.890Z,18.55
2019-02-02T14:58:13.836Z,17.02
2019-02-02T15:00:45.755Z,17.45
2019-02-02T15:05:50.771Z,27.73
2019-02-02T15:08:22.373Z,26.90
2019-02-02T15:10:54.068Z,23.47
2019-02-02T15:13:25.741Z,17.62
2019-02-02T15:18:28.345Z,17.43
2019-02-02T15:21:00.401Z,20.82
2019-02-02T15:23:32.006Z,24.95
2019-02-02T15:26:04.736Z,25.92
2019-02-02T15:31:07.691Z,25.80
2019-02-02T15:38:41.816Z,25.17
2019-02-02T15:41:13.618Z,24.65
2019-02-02T15:43:45.418Z,23.77
2019-02-02T15:46:17.064Z,26.80
2019-02-02T15:48:48.749Z,23.65
2019-02-02T15:53:51.314Z,27.30
2019-02-02T15:56:23.063Z,28.30
2019-02-02T15:58:57.770Z,26.93
2019-02-02T16:04:00.302Z,27.10
2019-02-02T16:06:32.301Z,28.32
2019-02-02T16:09:05.370Z,24.92
2019-02-02T16:11:37.308Z,23.07
2019-02-02T16:14:09.501Z,24.67
2019-02-02T16:16:41.260Z,25.77
2019-02-02T16:19:13.422Z,22.40
2019-02-02T16:21:45.305Z,18.60
2019-02-02T16:24:17.046Z,18.40
2019-02-02T16:26:48.823Z,24.57
2019-02-02T16:29:20.754Z,17.62
2019-02-02T16:34:28.753Z,19.05
2019-02-02T16:39:31.307Z,18.27
2019-02-02T16:42:03.307Z,20.20
2019-02-02T16:44:34.833Z,18.87
2019-02-02T16:47:06.859Z,19.15
2019-02-02T16:49:38.766Z,18.82
2019-02-02T16:54:41.361Z,19.35
2019-02-02T16:57:13.024Z,23.92
2019-02-02T16:59:44.778Z,28.42
2019-02-02T17:04:47.584Z,30.32
2019-02-02T17:07:18.649Z,28.92
2019-02-02T17:09:50.732Z,29.35
2019-02-02T17:14:55.700Z,28.87
2019-02-02T17:17:26.805Z,30.50
2019-02-02T17:19:58.571Z,29.32
2019-02-02T17:22:30.403Z,28.15
2019-02-02T17:25:02.035Z,30.08
2019-02-02T17:27:33.822Z,31.07
2019-02-02T17:30:07.376Z,30.37
2019-02-02T17:32:39.077Z,29.87
2019-02-02T17:35:11.913Z,28.40
2019-02-02T17:37:43.410Z,31.75
2019-02-02T17:40:19.993Z,31.12
2019-02-02T17:42:51.860Z,32.75
2019-02-02T17:45:24.102Z,30.30
2019-02-02T17:47:57.003Z,30.35
2019-02-02T17:50:29.891Z,27.55
2019-02-02T17:53:02.490Z,28.23
2019-02-02T17:55:35.514Z,28.50
2019-02-02T17:58:07.829Z,27.85
2019-02-02T18:00:54.757Z,24.27
2019-02-02T18:03:27.327Z,26.48
2019-02-02T18:05:59.816Z,27.50
2019-02-02T18:08:31.817Z,25.45
2019-02-02T18:11:03.867Z,25.62
2019-02-02T18:13:35.993Z,26.25
2019-02-02T18:16:07.916Z,23.70
2019-02-02T18:18:39.857Z,22.52
2019-02-02T18:21:11.840Z,20.25
2019-02-02T18:23:43.813Z,20.65
2019-02-02T18:26:15.810Z,22.65
2019-02-02T18:28:47.878Z,21.65
2019-02-02T18:31:19.851Z,21.93
2019-02-02T18:33:51.825Z,20.72
2019-02-02T18:36:23.844Z,19.02
2019-02-02T18:38:55.884Z,21.12
2019-02-02T18:41:27.819Z,20.55
2019-02-02T18:43:59.809Z,20.75
2019-02-02T18:46:31.877Z,21.27
2019-02-02T18:49:03.864Z,19.67
2019-02-02T18:51:35.869Z,19.77
2019-02-02T18:54:08.331Z,20.82
2019-02-02T18:56:40.871Z,20.35
2019-02-02T18:59:12.819Z,19.37
2019-02-02T19:01:44.860Z,20.65
2019-02-02T19:04:16.852Z,21.95
2019-02-02T19:06:49.067Z,26.35
2019-02-02T19:09:21.100Z,28.70
2019-02-02T19:11:53.323Z,30.27
2019-02-02T19:14:25.876Z,31.00
2019-02-02T19:17:01.210Z,31.57
2019-02-02T19:24:33.911Z,30.68
2019-02-02T19:27:05.798Z,31.07
2019-02-02T19:29:37.884Z,32.10
2019-02-02T19:32:10.809Z,31.77
2019-02-02T19:34:43.388Z,30.00
2019-02-02T19:37:15.993Z,29.10
2019-02-02T19:39:48.330Z,29.90
2019-02-02T19:42:21.347Z,31.15
2019-02-02T19:44:53.871Z,31.27
2019-02-02T19:47:26.485Z,29.15
2019-02-02T19:49:58.910Z,29.98
2019-02-02T19:52:31.094Z,28.60
2019-02-02T19:55:14.417Z,28.30
2019-02-02T19:57:37.277Z,29.10
2019-02-02T20:00:21.651Z,28.67
2019-02-02T20:02:54.285Z,21.87
2019-02-02T20:05:29.035Z,24.20
2019-02-02T20:08:00.668Z,24.52
2019-02-02T20:10:32.896Z,21.97
2019-02-02T20:13:05.321Z,21.68
2019-02-02T20:15:37.833Z,20.37
2019-02-02T20:18:10.697Z,24.27
2019-02-02T20:20:42.912Z,21.68
2019-02-02T20:23:15.893Z,21.82
2019-02-02T20:25:49.329Z,21.60
2019-02-02T20:28:22.084Z,23.15
2019-02-02T20:30:54.990Z,19.75
2019-02-02T20:33:28.096Z,22.80
2019-02-02T20:36:01.323Z,22.70
2019-02-02T20:38:33.903Z,22.62
2019-02-02T20:41:06.796Z,19.70
2019-02-02T20:43:39.468Z,22.15
2019-02-02T20:46:12.028Z,20.85
2019-02-02T20:48:44.724Z,21.97
2019-02-02T20:51:17.683Z,19.10
2019-02-02T20:56:23.917Z,20.70
2019-02-02T20:58:56.867Z,19.15
2019-02-02T21:01:29.339Z,20.32
2019-02-02T21:04:02.097Z,19.32
2019-02-02T21:06:34.923Z,19.80
2019-02-02T21:09:09.289Z,20.50
2019-02-02T21:11:42.056Z,20.30
2019-02-02T21:14:14.928Z,19.52
2019-02-02T21:16:47.911Z,19.40
2019-02-02T21:19:20.874Z,19.30
2019-02-02T21:21:53.511Z,19.73
2019-02-02T21:24:27.239Z,19.02
2019-02-02T21:27:00.071Z,20.30
2019-02-02T21:29:32.861Z,20.40
2019-02-02T21:32:05.332Z,18.57
2019-02-02T21:34:38.042Z,21.25
2019-02-02T21:37:10.940Z,20.17
2019-02-02T21:39:43.880Z,20.80
2019-02-02T21:42:17.099Z,21.97
2019-02-02T21:44:49.863Z,19.32
2019-02-02T21:47:22.409Z,19.55
2019-02-02T21:49:55.039Z,18.77
2019-02-02T21:52:28.318Z,21.65
2019-02-02T21:55:01.094Z,18.62
2019-02-02T21:57:34.028Z,23.05
2019-02-02T22:00:10.849Z,19.62
2019-02-02T22:02:44.328Z,20.48
2019-02-02T22:05:17.642Z,19.77
2019-02-02T22:07:50.319Z,20.35
2019-02-02T22:10:23.102Z,20.80
2019-02-02T22:12:56.026Z,19.70
2019-02-02T22:15:28.996Z,19.67
2019-02-02T22:18:02.340Z,22.27
2019-02-02T22:20:35.396Z,18.27
2019-02-02T22:23:08.042Z,19.00
2019-02-02T22:25:40.907Z,20.10
2019-02-02T22:28:13.896Z,21.55
2019-02-02T22:30:46.900Z,20.62
2019-02-02T22:33:19.484Z,19.70
2019-02-02T22:35:52.095Z,19.27
2019-02-02T22:38:24.926Z,20.52
2019-02-02T22:40:58.100Z,19.45
2019-02-02T22:43:31.077Z,19.57
2019-02-02T22:46:04.094Z,19.30
2019-02-02T22:48:37.039Z,19.12
2019-02-02T22:51:09.913Z,18.85
2019-02-02T22:53:42.883Z,20.27
2019-02-02T22:56:16.027Z,19.73
2019-02-02T22:58:49.396Z,19.60
2019-02-02T23:01:43.939Z,23.18
2019-02-02T23:05:00.021Z,20.32
2019-02-02T23:08:45.009Z,19.25
2019-02-02T23:12:24.451Z,21.05
2019-02-02T23:16:07.006Z,19.15
2019-02-02T23:18:40.101Z,20.65
2019-02-02T23:21:13.098Z,20.48
2019-02-02T23:23:46.041Z,21.48
2019-02-02T23:26:18.934Z,20.25
2019-02-02T23:28:51.986Z,18.73
2019-02-02T23:31:25.070Z,21.25
2019-02-02T23:33:57.883Z,19.00
2019-02-02T23:36:30.572Z,20.30
2019-02-02T23:39:03.140Z,18.90
2019-02-02T23:41:34.746Z,19.57
2019-02-02T23:46:37.314Z,19.62
2019-02-02T23:49:09.316Z,19.05
2019-02-02T23:51:40.881Z,20.68
2019-02-02T23:54:13.070Z,18.48
2019-02-02T23:56:44.752Z,20.20
